Latest Weather Observations for Mandurah

IDW60801

Issued at 9:33 am WST Thursday 21 November 2019 (issued every 10 minutes, with the page automatically refreshed every 10 minutes)

About weather observations | Map of weather stations | Latest weather observations for WA | Other Formats
Station Details ID: 009977 Name: MANDURAH Lat: -32.52 Lon: 115.71 Height: 3.0 m
Data from the previous 72 hours. | See also: Recent months at Mandurah
Date/Time
WST
Temp
°C
App
Temp
°C
Dew
Point
°C
Rel
Hum
%
Delta-T
°C
Wind Press
QNH
hPa
Press
MSL
hPa
Rain since
9am
mm
Dir  Spd
km/h
Gust
km/h
Spd
kts
Gust
kts
21/09:30am 18.8 16.8 6.3 44 6.2 NNW 6 7 3 4 1021.0 1021.0 0.0
21/09:00am 18.3 16.9 5.5 43 6.2 E 2 6 1 3 1021.4 1021.4 0.0
21/08:30am 17.3 15.1 6.2 48 5.4 NNE 7 9 4 5 1021.5 1021.5 0.0
21/08:00am 16.4 13.7 5.4 48 5.2 NE 9 15 5 8 1021.4 1021.4 0.0
21/07:30am 15.2 11.6 4.9 50 4.8 ENE 13 19 7 10 1021.5 1021.5 0.0
21/07:00am 14.2 11.8 5.3 55 4.2 ENE 7 11 4 6 1021.4 1021.4 0.0
21/06:30am 12.6 10.4 5.3 61 3.4 ENE 6 11 3 6 1021.3 1021.3 0.0
21/06:00am 11.6 9.4 5.5 66 2.8 E 6 9 3 5 1020.9 1020.9 0.0
21/05:30am 11.1 9.0 5.6 69 2.5 ESE 6 9 3 5 1020.5 1020.5 0.0
21/05:00am 11.0 8.8 5.3 68 2.6 ESE 6 9 3 5 1020.3 1020.3 0.0
21/04:30am 11.1 8.9 5.4 68 2.6 SE 6 7 3 4 1020.1 1020.1 0.0
21/04:00am 11.3 9.2 5.8 69 2.5 SE 6 9 3 5 1019.8 1019.8 0.0
21/03:30am 11.6 9.6 6.1 69 2.6 SE 6 9 3 5 1019.6 1019.6 0.0
21/03:00am 12.0 9.9 5.9 66 2.8 SE 6 9 3 5 1019.5 1019.5 0.0
21/02:30am 12.5 9.9 5.9 64 3.1 SE 9 11 5 6 1019.2 1019.2 0.0
21/02:00am 12.7 10.2 6.7 67 2.9 SE 9 13 5 7 1019.1 1019.1 0.0
21/01:30am 13.2 10.7 6.5 64 3.2 SE 9 13 5 7 1019.4 1019.4 0.0
21/01:00am 13.6 11.1 6.5 62 3.4 SE 9 15 5 8 1019.5 1019.5 0.0
21/12:30am 13.6 10.6 6.0 60 3.6 SE 11 19 6 10 1019.6 1019.6 0.0
21/12:00am 14.1 10.0 6.2 59 3.8 SSE 17 24 9 13 1019.4 1019.4 0.0
 
Date/Time
WST
Temp
°C
App
Temp
°C
Dew
Point
°C
Rel
Hum
%
Delta-T
°C
Wind Press
QNH
hPa
Press
MSL
hPa
Rain since
9am
mm
Dir  Spd
km/h
Gust
km/h
Spd
kts
Gust
kts
20/11:30pm 14.7 10.2 6.3 57 4.0 SSE 19 32 10 17 1019.6 1019.6 0.0
20/11:00pm 15.1 11.0 6.4 56 4.2 SSE 17 24 9 13 1019.9 1019.9 0.0
20/10:30pm 15.6 10.8 5.8 52 4.7 SSE 20 33 11 18 1020.0 1020.0 0.0
20/10:00pm 16.2 11.8 7.4 56 4.4 S 20 30 11 16 1020.1 1020.1 0.0
20/09:30pm 16.3 12.5 7.5 56 4.4 S 17 26 9 14 1020.1 1020.1 0.0
20/09:00pm 16.4 12.2 7.3 55 4.5 SSW 19 28 10 15 1020.0 1020.0 0.0
20/08:30pm 16.4 12.5 7.3 55 4.5 SSW 17 28 9 15 1020.0 1020.0 0.0
20/08:00pm 16.5 12.7 7.7 56 4.4 SSW 17 26 9 14 1019.9 1019.9 0.0
20/07:30pm 16.5 12.7 7.4 55 4.5 SSW 17 26 9 14 1019.6 1019.6 0.0
20/07:00pm 16.9 13.2 7.8 55 4.6 SSW 17 24 9 13 1019.4 1019.4 0.0
20/06:30pm 17.1 12.8 7.2 52 4.9 SW 19 28 10 15 1019.1 1019.1 0.0
20/06:00pm 17.8 14.0 7.5 51 5.2 SSW 17 26 9 14 1018.6 1018.6 0.0
20/05:30pm 18.0 13.9 7.7 51 5.2 SW 19 30 10 16 1018.2 1018.2 0.0
20/05:00pm 18.4 13.6 7.5 49 5.5 SW 22 33 12 18 1017.8 1017.8 0.0
20/04:30pm 19.0 14.7 6.8 45 6.1 SW 19 35 10 19 1017.5 1017.5 0.0
20/04:00pm 19.2 14.7 6.3 43 6.4 SW 19 32 10 17 1017.3 1017.3 0.0
20/03:30pm 18.9 14.3 6.4 44 6.2 SSW 20 32 11 17 1017.1 1017.1 0.0
20/03:00pm 19.4 14.9 6.8 44 6.3 SSW 20 35 11 19 1017.1 1017.1 0.0
20/02:30pm 19.5 14.2 4.8 38 7.1 SSW 22 33 12 18 1017.0 1017.0 0.0
20/02:00pm 19.5 14.7 5.6 40 6.8 SSW 20 39 11 21 1017.0 1017.0 0.0
20/01:30pm 18.7 13.6 5.9 43 6.3 SSW 22 39 12 21 1017.1 1017.1 0.0
20/01:00pm 18.6 12.7 4.0 38 6.9 SSW 24 41 13 22 1017.1 1017.1 0.0
20/12:30pm 18.7 12.9 6.2 44 6.2 SW 26 41 14 22 1017.1 1017.1 0.0
20/12:00pm 18.1 12.1 3.6 38 6.8 SSW 24 39 13 21 1016.8 1016.8 0.0
20/11:33am 17.9 11.5 5.2 43 6.1 SSW 28 46 15 25 1016.7 1016.7 0.0
20/11:30am 18.3 12.6 6.5 46 5.9 SW 26 41 14 22 1016.7 1016.7 0.0
20/11:00am 17.5 11.9 5.4 45 5.8 SSW 24 39 13 21 1016.7 1016.7 0.0
20/10:30am 18.4 12.3 4.6 40 6.6 SSW 26 41 14 22 1016.5 1016.5 0.0
20/10:00am 17.4 12.8 6.3 48 5.4 SSW 20 37 11 20 1016.1 1016.1 0.0
20/09:37am 16.3 10.2 6.7 53 4.7 SSW 28 52 15 28 1016.2 1016.2 0.0
20/09:30am 17.0 11.5 7.6 54 4.7 SSW 26 44 14 24 1016.0 1016.0 0.0
20/09:06am 17.2 10.9 5.5 46 5.6 SW 28 46 15 25 1015.8 1015.8 0.0
20/09:00am 17.9 12.5 6.4 47 5.7 SW 24 44 13 24 1015.8 1015.8 0.8
20/08:30am 17.3 10.4 6.5 49 5.3 SW 32 52 17 28 1015.4 1015.4 0.8
20/08:00am 17.2 10.2 6.1 48 5.4 SW 32 50 17 27 1014.8 1014.8 0.8
20/07:30am 16.1 11.0 7.6 57 4.2 SW 24 46 13 25 1014.4 1014.4 0.8
20/07:00am 16.1 9.7 8.6 61 3.8 SW 32 54 17 29 1013.9 1013.9 0.8
20/06:30am 16.0 8.9 8.2 60 3.9 SW 35 54 19 29 1013.1 1013.1 0.8
20/06:16am 16.8 11.5 10.0 64 3.6 SW 28 48 15 26 1012.6 1012.6 0.8
20/06:00am 16.2 11.1 9.2 63 3.6 SW 26 43 14 23 1012.5 1012.5 0.8
20/05:54am 16.2 10.8 9.4 64 3.5 SW 28 48 15 26 1012.4 1012.4 0.8
20/05:30am 16.1 10.0 10.4 69 3.0 SW 33 50 18 27 1012.2 1012.2 0.8
20/05:04am 17.1 11.1 8.8 58 4.3 WSW 30 50 16 27 1011.5 1011.5 0.8
20/05:00am 16.9 11.1 8.1 56 4.5 WSW 28 44 15 24 1011.5 1011.5 0.8
20/04:42am 16.7 11.1 10.1 65 3.5 WSW 30 48 16 26 1011.2 1011.2 0.8
20/04:30am 16.7 11.1 11.6 72 2.8 SW 32 48 17 26 1011.2 1011.2 0.8
20/04:05am 16.6 12.1 11.5 72 2.8 SW 26 48 14 26 1011.0 1011.0 0.8
20/04:00am 15.9 12.4 10.9 72 2.7 WSW 20 48 11 26 1010.9 1010.9 0.8
20/03:30am 15.1 13.3 12.1 82 1.6 WSW 13 22 7 12 1010.9 1010.9 0.2
20/03:09am 16.4 11.6 11.8 74 2.5 WSW 28 50 15 27 1011.1 1011.1 0.0
20/03:00am 17.7 13.5 9.6 59 4.3 WSW 22 35 12 19 1010.6 1010.6 0.0
20/02:30am 17.4 13.6 11.0 66 3.4 WSW 22 37 12 20 1010.5 1010.5 0.0
20/02:00am 18.0 13.8 9.6 58 4.4 WSW 22 35 12 19 1010.4 1010.4 0.0
20/01:30am 17.8 13.9 9.4 58 4.4 WSW 20 30 11 16 1010.4 1010.4 0.0
20/01:00am 16.8 13.2 10.0 64 3.6 SW 19 37 10 20 1010.7 1010.7 0.0
20/12:41am 16.5 11.8 11.9 74 2.5 WSW 28 50 15 27 1011.1 1011.1 0.0
20/12:30am 18.1 15.0 10.2 60 4.2 WSW 17 26 9 14 1010.8 1010.8 0.0
20/12:00am 17.9 15.7 9.3 57 4.5 SW 11 20 6 11 1011.0 1011.0 0.0
 
Date/Time
WST
Temp
°C
App
Temp
°C
Dew
Point
°C
Rel
Hum
%
Delta-T
°C
Wind Press
QNH
hPa
Press
MSL
hPa
Rain since
9am
mm
Dir  Spd
km/h
Gust
km/h
Spd
kts
Gust
kts
19/11:30pm 17.7 13.9 9.1 57 4.5 SW 19 28 10 15 1011.3 1011.3 0.0
19/11:00pm 17.8 14.5 9.4 58 4.4 SW 17 26 9 14 1011.5 1011.5 0.0
19/10:30pm 17.8 14.3 8.9 56 4.6 SW 17 32 9 17 1011.6 1011.6 0.0
19/10:00pm 17.8 14.2 9.9 60 4.2 SW 19 30 10 16 1011.8 1011.8 0.0
19/09:30pm 17.8 14.3 10.2 61 4.0 SW 19 30 10 16 1011.8 1011.8 0.0
19/09:00pm 17.8 14.7 10.4 62 4.0 SW 17 26 9 14 1011.7 1011.7 0.0
19/08:30pm 17.8 14.9 10.9 64 3.7 SW 17 26 9 14 1011.5 1011.5 0.0
19/08:00pm 17.7 14.6 10.3 62 3.9 SW 17 28 9 15 1011.3 1011.3 0.0
19/07:30pm 17.9 15.0 11.0 64 3.7 SW 17 30 9 16 1011.1 1011.1 0.0
19/07:00pm 18.1 14.9 11.2 64 3.7 SW 19 28 10 15 1010.9 1010.9 0.0
19/06:30pm 18.3 15.1 11.1 63 3.9 SW 19 26 10 14 1010.5 1010.5 0.0
19/06:00pm 18.4 15.1 11.0 62 4.0 SW 19 32 10 17 1010.1 1010.1 0.0
19/05:30pm 19.1 15.7 11.2 60 4.3 SW 20 32 11 17 1010.0 1010.0 0.0
19/05:00pm 19.6 15.8 11.1 58 4.6 SW 22 33 12 18 1010.0 1010.0 0.0
19/04:30pm 19.5 16.4 11.5 60 4.4 SSW 19 32 10 17 1009.9 1009.9 0.0
19/04:00pm 19.7 15.8 12.2 62 4.2 SW 24 37 13 20 1010.1 1010.1 0.0
19/03:44pm 20.1 15.5 12.3 61 4.4 SW 28 46 15 25 1009.9 1009.9 0.0
19/03:30pm 20.4 15.5 12.6 61 4.4 SW 30 43 16 23 1009.9 1009.9 0.0
19/03:00pm 20.4 15.9 13.8 66 3.8 SW 30 41 16 22 1009.8 1009.8 0.0
19/02:30pm 20.3 16.2 13.7 66 3.8 SW 28 39 15 21 1009.7 1009.7 0.0
19/02:00pm 20.2 16.6 14.1 68 3.5 SW 26 43 14 23 1009.8 1009.8 0.0
19/01:30pm 20.5 17.0 14.6 69 3.4 SW 26 41 14 22 1009.8 1009.8 0.0
19/01:00pm 21.1 17.9 15.4 70 3.4 SW 26 37 14 20 1009.8 1009.8 0.0
19/12:30pm 21.2 18.1 15.7 71 3.3 WSW 26 37 14 20 1009.7 1009.7 0.0
19/12:00pm 21.6 19.2 15.4 68 3.7 WSW 22 33 12 18 1009.5 1009.5 0.0
19/11:30am 22.2 19.8 15.3 65 4.1 WSW 22 32 12 17 1009.7 1009.7 0.0
19/11:00am 21.5 18.5 14.9 66 3.9 WSW 24 37 13 20 1009.8 1009.8 0.0
19/10:30am 23.6 22.3 12.6 50 6.3 SSW 11 20 6 11 1009.7 1009.7 0.0
19/10:00am 22.5 21.2 13.6 57 5.2 S 13 20 7 11 1009.7 1009.7 0.0
19/09:30am 21.8 20.8 13.4 59 4.8 S 11 17 6 9 1009.8 1009.8 0.0
19/09:00am 20.7 20.0 12.1 58 4.8 S 7 13 4 7 1010.1 1010.1 0.0
19/08:30am 19.7 18.8 12.5 63 4.0 SSE 9 13 5 7 1010.2 1010.2 0.0
19/08:00am 19.7 18.8 12.5 63 4.0 SSE 9 15 5 8 1009.8 1009.8 0.0
19/07:30am 19.1 17.3 12.1 64 3.9 SSE 13 19 7 10 1010.1 1010.1 0.0
19/07:00am 19.1 17.2 11.9 63 4.0 SSE 13 17 7 9 1009.9 1009.9 0.0
19/06:30am 19.3 17.4 11.8 62 4.1 SSE 13 20 7 11 1009.5 1009.5 0.0
19/06:00am 19.3 17.9 12.3 64 3.9 SSE 11 17 6 9 1009.5 1009.5 0.0
19/05:30am 19.1 18.2 12.6 66 3.6 SSE 9 15 5 8 1009.6 1009.6 0.0
19/05:00am 19.1 17.6 11.9 63 4.0 SE 11 15 6 8 1009.7 1009.7 0.0
19/04:30am 19.2 17.6 11.7 62 4.1 SSE 11 17 6 9 1009.6 1009.6 0.0
19/04:00am 19.6 18.3 11.4 59 4.5 SE 9 13 5 7 1009.5 1009.5 0.0
19/03:30am 20.0 18.3 11.2 57 4.8 SSE 11 17 6 9 1009.5 1009.5 0.0
19/03:00am 20.3 19.2 11.8 58 4.7 SSE 9 17 5 9 1009.5 1009.5 0.0
19/02:30am 20.9 20.2 13.1 61 4.4 SE 9 19 5 10 1009.6 1009.6 0.0
19/02:00am 21.2 20.6 13.4 61 4.5 S 9 15 5 8 1009.4 1009.4 0.0
19/01:30am 21.7 20.0 12.5 56 5.2 SE 13 19 7 10 1009.6 1009.6 0.0
19/01:00am 21.5 21.2 13.4 60 4.7 SE 7 11 4 6 1009.9 1009.9 0.0
19/12:30am 22.2 22.0 14.8 63 4.4 SSE 9 17 5 9 1010.5 1010.5 0.0
19/12:00am 22.7 22.3 15.3 63 4.4 SSE 11 20 6 11 1010.6 1010.6 0.0
 
Date/Time
WST
Temp
°C
App
Temp
°C
Dew
Point
°C
Rel
Hum
%
Delta-T
°C
Wind Press
QNH
hPa
Press
MSL
hPa
Rain since
9am
mm
Dir  Spd
km/h
Gust
km/h
Spd
kts
Gust
kts
18/11:30pm 22.8 22.6 16.8 69 3.7 SSE 13 17 7 9 1010.9 1010.9 0.0
18/11:00pm 22.9 23.5 17.8 73 3.2 S 11 17 6 9 1011.3 1011.3 0.0
18/10:30pm 23.7 24.0 17.0 66 4.1 S 11 17 6 9 1011.6 1011.6 0.0
18/10:00pm 23.6 23.9 16.9 66 4.1 S 11 20 6 11 1011.8 1011.8 0.0
18/09:30pm 23.4 23.5 17.4 69 3.7 S 13 22 7 12 1012.0 1012.0 0.0
18/09:00pm 23.1 22.4 17.3 70 3.6 S 17 24 9 13 1012.1 1012.1 0.0
18/08:30pm 23.2 22.4 17.2 69 3.7 S 17 26 9 14 1012.0 1012.0 0.0
18/08:00pm 23.5 22.0 16.8 66 4.1 S 20 30 11 16 1012.0 1012.0 0.0
18/07:30pm 23.6 22.2 16.9 66 4.1 S 20 30 11 16 1012.0 1012.0 0.0
18/07:00pm 23.7 21.9 17.0 66 4.1 S 22 32 12 17 1012.2 1012.2 0.0
18/06:30pm 23.8 21.7 17.1 66 4.1 S 24 37 13 20 1012.3 1012.3 0.0
18/06:00pm 24.5 23.1 17.0 63 4.6 SSW 20 32 11 17 1012.3 1012.3 0.0
18/05:30pm 24.3 22.8 16.8 63 4.6 S 20 32 11 17 1012.3 1012.3 0.0
18/05:00pm 24.2 22.4 15.9 59 5.0 SSW 20 35 11 19 1012.5 1012.5 0.0
18/04:30pm 25.3 23.0 14.7 51 6.3 SSW 20 32 11 17 1012.5 1012.5 0.0
18/04:00pm 26.1 23.5 14.9 50 6.7 SSW 22 33 12 18 1012.8 1012.8 0.0
18/03:30pm 27.0 25.2 15.4 49 7.1 SW 19 30 10 16 1012.9 1012.9 0.0
18/03:00pm 27.6 25.0 13.9 43 8.2 SSW 20 32 11 17 1013.0 1013.0 0.0
18/02:30pm 27.5 24.8 14.5 45 7.8 SSW 22 32 12 17 1013.3 1013.3 0.0
18/02:00pm 27.4 24.9 14.1 44 7.9 SSW 20 28 11 15 1013.5 1013.5 0.0
18/01:30pm 27.8 26.0 14.4 43 8.0 SSW 17 28 9 15 1013.8 1013.8 0.0
18/01:00pm 28.0 26.6 14.6 44 8.1 SSW 15 24 8 13 1014.2 1014.2 0.0
18/12:30pm 26.6 24.9 14.7 48 7.1 SSW 17 24 9 13 1014.7 1014.7 0.0
18/12:00pm 25.8 23.8 14.9 51 6.5 SSW 19 28 10 15 1015.0 1015.0 0.0
18/11:30am 25.6 24.0 15.0 52 6.4 SSW 17 26 9 14 1015.2 1015.2 0.0
18/11:00am 27.0 25.7 13.7 44 7.9 SSW 13 20 7 11 1015.6 1015.6 0.0
18/10:30am 25.6 24.5 13.1 46 7.3 S 11 17 6 9 1016.0 1016.0 0.0
18/10:00am 25.0 23.9 13.2 48 6.9 SSW 11 15 6 8 1016.4 1016.4 0.0

Other formats

Comma delimited format used in spreadsheet applications
http://www.bom.gov.au/fwo/IDW60801/IDW60801.94605.axf

JavaScript Object Notation format (JSON) in row-major order
http://www.bom.gov.au/fwo/IDW60801/IDW60801.94605.json

Data quality

Most of these data are generated automatically and are frequently updated. Quality checks on data are not normally performed. It is possible for incorrect values to appear. Refer to information at About Latest Weather Observations and please check the disclaimer before using these data.